createdAt,value
2022-11-08T00:00:11.446Z,61.60
2022-11-08T00:02:39.127Z,61.55
2022-11-08T00:05:24.804Z,61.53
2022-11-08T00:08:10.734Z,61.77
2022-11-08T00:10:56.230Z,62.02
2022-11-08T00:13:42.056Z,61.93
2022-11-08T00:16:08.991Z,62.65
2022-11-08T00:18:35.937Z,62.07
2022-11-08T00:21:04.158Z,62.10
2022-11-08T00:23:31.223Z,62.34
2022-11-08T00:25:58.177Z,62.09
2022-11-08T00:28:25.139Z,61.88
2022-11-08T00:30:52.125Z,61.84
2022-11-08T00:33:19.066Z,61.47
2022-11-08T00:35:46.108Z,61.46
2022-11-08T00:38:13.146Z,61.84
2022-11-08T00:40:40.206Z,61.79
2022-11-08T00:43:07.177Z,61.38
2022-11-08T00:45:34.187Z,61.48
2022-11-08T00:48:01.188Z,61.65
2022-11-08T00:50:28.156Z,62.03
2022-11-08T00:52:55.149Z,61.83
2022-11-08T00:55:22.187Z,61.90
2022-11-08T00:58:04.418Z,61.81
2022-11-08T01:00:31.488Z,62.53
2022-11-08T01:03:16.947Z,62.00
2022-11-08T01:05:44.409Z,62.34
2022-11-08T01:08:12.766Z,61.88
2022-11-08T01:10:48.469Z,62.14
2022-11-08T01:13:16.294Z,62.37
2022-11-08T01:15:45.214Z,62.13
2022-11-08T01:18:13.738Z,62.52
2022-11-08T01:20:45.027Z,62.91
2022-11-08T01:23:13.055Z,62.67
2022-11-08T01:25:45.657Z,63.12
2022-11-08T01:28:13.228Z,62.80
2022-11-08T01:30:43.049Z,63.07
2022-11-08T01:33:11.411Z,63.15
2022-11-08T01:35:39.047Z,63.51
2022-11-08T01:38:06.766Z,63.25
2022-11-08T01:40:34.346Z,62.95
2022-11-08T01:43:33.308Z,62.34
2022-11-08T01:46:18.471Z,62.41
2022-11-08T01:49:00.895Z,62.20
2022-11-08T01:51:53.788Z,62.41
2022-11-08T01:54:45.306Z,62.22
2022-11-08T01:57:20.347Z,62.09
2022-11-08T01:59:51.128Z,62.73
2022-11-08T02:02:19.873Z,63.16
2022-11-08T02:04:47.766Z,63.38
2022-11-08T02:07:16.269Z,63.16
2022-11-08T02:09:46.688Z,62.73
2022-11-08T02:12:16.049Z,62.59
2022-11-08T02:14:43.432Z,62.67
2022-11-08T02:17:11.175Z,62.82
2022-11-08T02:19:40.216Z,62.90
2022-11-08T02:22:17.787Z,62.75
2022-11-08T02:24:45.166Z,62.77
2022-11-08T02:27:12.849Z,62.80
2022-11-08T02:29:39.926Z,62.75
2022-11-08T02:32:07.289Z,62.84
2022-11-08T02:34:48.907Z,63.33
2022-11-08T02:37:18.848Z,63.32
2022-11-08T02:39:48.032Z,63.11
2022-11-08T02:42:18.740Z,63.22
2022-11-08T02:44:48.974Z,63.55
2022-11-08T02:47:16.329Z,63.36
2022-11-08T02:49:43.446Z,63.70
2022-11-08T02:52:10.636Z,63.25
2022-11-08T02:54:37.627Z,63.14
2022-11-08T02:57:04.665Z,63.23
2022-11-08T02:59:31.688Z,63.42
2022-11-08T03:01:58.811Z,63.66
2022-11-08T03:04:26.026Z,63.81
2022-11-08T03:06:53.065Z,63.82
2022-11-08T03:09:20.126Z,63.66
2022-11-08T03:11:47.233Z,63.71
2022-11-08T03:14:14.227Z,63.33
2022-11-08T03:16:41.226Z,63.27
2022-11-08T03:19:08.166Z,63.23
2022-11-08T03:21:36.932Z,62.81
2022-11-08T03:24:05.581Z,62.82
2022-11-08T03:26:33.087Z,62.96
2022-11-08T03:29:00.112Z,63.24
2022-11-08T03:31:27.828Z,62.95
2022-11-08T03:33:54.766Z,63.05
2022-11-08T03:36:21.866Z,63.27
2022-11-08T03:38:48.905Z,63.31
2022-11-08T03:41:16.008Z,63.18
2022-11-08T03:43:43.067Z,63.31
2022-11-08T03:46:10.133Z,63.66
2022-11-08T03:48:37.065Z,63.36
2022-11-08T03:51:04.275Z,63.87
2022-11-08T03:53:31.365Z,63.77
2022-11-08T03:56:01.907Z,64.08
2022-11-08T03:58:28.949Z,63.47
2022-11-08T04:00:58.398Z,63.35
2022-11-08T04:03:25.748Z,63.45
2022-11-08T04:05:52.750Z,64.05
2022-11-08T04:08:20.084Z,63.85
2022-11-08T04:10:47.387Z,63.65
2022-11-08T04:13:33.007Z,64.33
2022-11-08T04:16:00.156Z,64.23
2022-11-08T04:18:45.533Z,63.94
2022-11-08T04:21:21.983Z,63.67
2022-11-08T04:23:51.196Z,63.87
2022-11-08T04:26:19.448Z,64.25
2022-11-08T04:28:46.311Z,63.73
2022-11-08T04:31:18.655Z,64.03
2022-11-08T04:33:46.266Z,64.01
2022-11-08T04:36:15.493Z,63.73
2022-11-08T04:38:42.586Z,63.81
2022-11-08T04:41:14.605Z,63.53
2022-11-08T04:43:42.332Z,62.90
2022-11-08T04:46:14.927Z,62.35
2022-11-08T04:48:42.965Z,62.42
2022-11-08T04:51:19.081Z,62.98
2022-11-08T04:53:46.645Z,63.26
2022-11-08T04:56:19.843Z,63.37
2022-11-08T04:58:52.067Z,64.01
2022-11-08T05:01:21.735Z,63.75
2022-11-08T05:03:51.453Z,63.29
2022-11-08T05:06:30.629Z,64.00
2022-11-08T05:08:59.393Z,63.80
2022-11-08T05:11:28.448Z,64.01
2022-11-08T05:13:56.546Z,63.57
2022-11-08T05:16:29.835Z,64.00
2022-11-08T05:18:56.895Z,64.09
2022-11-08T05:21:43.671Z,64.44
2022-11-08T05:24:13.342Z,64.03
2022-11-08T05:26:42.824Z,63.33
2022-11-08T05:29:10.645Z,63.06
2022-11-08T05:31:37.681Z,62.00
2022-11-08T05:34:04.950Z,62.08
2022-11-08T05:36:31.930Z,62.47
2022-11-08T05:38:58.849Z,62.91
2022-11-08T05:41:26.541Z,63.18
2022-11-08T05:43:55.268Z,63.32
2022-11-08T05:46:23.857Z,63.24
2022-11-08T05:48:51.450Z,63.46
2022-11-08T05:51:19.262Z,63.27
2022-11-08T05:53:48.870Z,63.48
2022-11-08T05:56:16.927Z,63.70
2022-11-08T05:58:44.666Z,63.34
2022-11-08T06:01:14.473Z,63.64
2022-11-08T06:03:41.943Z,63.31
2022-11-08T06:06:20.639Z,63.64
2022-11-08T06:08:50.743Z,63.71
2022-11-08T06:11:22.601Z,64.42
2022-11-08T06:13:50.137Z,63.88
2022-11-08T06:16:18.842Z,64.11
2022-11-08T06:18:45.860Z,64.22
2022-11-08T06:21:15.300Z,64.77
2022-11-08T06:23:42.301Z,64.92
2022-11-08T06:26:10.054Z,65.23
2022-11-08T06:28:37.050Z,64.92
2022-11-08T06:31:05.080Z,65.05
2022-11-08T06:33:32.752Z,64.61
2022-11-08T06:35:59.830Z,64.98
2022-11-08T06:38:27.032Z,65.61
2022-11-08T06:40:54.432Z,65.33
2022-11-08T06:43:21.735Z,66.07
2022-11-08T06:45:49.151Z,65.82
2022-11-08T06:48:16.152Z,65.68
2022-11-08T06:50:43.606Z,65.05
2022-11-08T06:53:13.242Z,64.17
2022-11-08T06:55:40.321Z,64.90
2022-11-08T06:58:07.264Z,65.14
2022-11-08T07:00:34.491Z,64.89
2022-11-08T07:03:03.717Z,64.98
2022-11-08T07:05:33.295Z,65.01
2022-11-08T07:08:01.233Z,65.00
2022-11-08T07:10:31.038Z,64.60
2022-11-08T07:13:04.072Z,64.48
2022-11-08T07:15:32.553Z,64.72
2022-11-08T07:18:04.261Z,64.89
2022-11-08T07:20:31.970Z,64.54
2022-11-08T07:22:59.396Z,64.57
2022-11-08T07:25:27.902Z,65.37
2022-11-08T07:27:59.482Z,64.95
2022-11-08T07:30:27.491Z,64.66
2022-11-08T07:32:56.141Z,64.85
2022-11-08T07:35:23.702Z,64.73
2022-11-08T07:37:50.750Z,64.58
2022-11-08T07:40:17.812Z,64.38
2022-11-08T07:43:10.144Z,64.53
2022-11-08T07:45:31.882Z,64.13
2022-11-08T07:48:11.077Z,64.00
2022-11-08T07:50:40.642Z,64.24
2022-11-08T07:53:08.382Z,64.27
2022-11-08T07:55:40.029Z,64.14
2022-11-08T07:58:08.351Z,63.92
2022-11-08T08:00:36.701Z,63.28
2022-11-08T08:03:05.301Z,62.71
2022-11-08T08:05:38.854Z,62.99
2022-11-08T08:08:06.392Z,62.67
2022-11-08T08:10:33.763Z,62.66
2022-11-08T08:13:01.028Z,62.69
2022-11-08T08:15:28.003Z,62.94
2022-11-08T08:17:54.997Z,62.80
2022-11-08T08:20:21.965Z,62.76
2022-11-08T08:22:50.675Z,62.69
2022-11-08T08:25:18.554Z,62.55
2022-11-08T08:27:50.332Z,62.80
2022-11-08T08:30:18.117Z,62.32
2022-11-08T08:32:47.994Z,62.51
2022-11-08T08:35:17.572Z,61.80
2022-11-08T08:37:44.474Z,62.06
2022-11-08T08:40:12.145Z,61.55
2022-11-08T08:42:39.092Z,61.05
2022-11-08T08:45:10.664Z,61.22
2022-11-08T08:47:40.642Z,60.85
2022-11-08T08:50:07.859Z,60.53
2022-11-08T08:52:34.861Z,60.47
2022-11-08T08:55:02.091Z,60.52
2022-11-08T08:57:29.213Z,60.04
2022-11-08T09:02:44.132Z,59.70
2022-11-08T09:05:12.911Z,58.91
2022-11-08T09:07:40.781Z,58.91
2022-11-08T09:10:10.499Z,58.26
2022-11-08T09:12:38.893Z,57.61
2022-11-08T09:15:06.664Z,56.88
2022-11-08T09:17:33.708Z,56.59
2022-11-08T09:20:00.700Z,56.11
2022-11-08T09:22:27.802Z,55.51
2022-11-08T09:24:54.893Z,54.93
2022-11-08T09:27:21.913Z,54.08
2022-11-08T09:29:48.841Z,54.60
2022-11-08T09:32:17.208Z,54.02
2022-11-08T09:34:46.079Z,53.44
2022-11-08T09:37:13.461Z,53.26
2022-11-08T09:39:40.571Z,53.23
2022-11-08T09:42:22.447Z,51.34
2022-11-08T09:44:52.192Z,49.19
2022-11-08T09:47:30.593Z,49.64
2022-11-08T09:50:16.268Z,49.54
2022-11-08T09:52:47.541Z,48.54
2022-11-08T09:55:27.922Z,48.54
2022-11-08T09:58:07.111Z,48.29
2022-11-08T10:00:38.271Z,48.19
2022-11-08T10:03:05.322Z,47.64
2022-11-08T10:05:42.331Z,47.85
2022-11-08T10:08:23.672Z,47.71
2022-11-08T10:11:02.173Z,47.19
2022-11-08T10:13:40.531Z,45.94
2022-11-08T10:16:25.734Z,46.27
2022-11-08T10:19:06.462Z,45.96
2022-11-08T10:21:53.882Z,45.45
2022-11-08T10:24:37.650Z,45.36
2022-11-08T10:27:33.481Z,43.80
2022-11-08T10:30:04.132Z,43.87
2022-11-08T10:32:33.829Z,43.29
2022-11-08T10:35:12.966Z,43.56
2022-11-08T10:37:42.563Z,43.18
2022-11-08T10:40:17.462Z,43.12
2022-11-08T10:43:06.813Z,42.58
2022-11-08T10:45:36.380Z,41.38
2022-11-08T10:48:04.751Z,41.64
2022-11-08T10:50:43.263Z,41.99
2022-11-08T10:53:22.342Z,39.87
2022-11-08T10:55:52.574Z,40.94
2022-11-08T10:58:31.884Z,40.85
2022-11-08T11:01:06.535Z,40.15
2022-11-08T11:03:33.638Z,39.14
2022-11-08T11:06:03.154Z,39.18
2022-11-08T11:08:30.432Z,39.37
2022-11-08T11:11:34.856Z,38.74
2022-11-08T11:14:23.551Z,38.16
2022-11-08T11:17:13.915Z,37.73
2022-11-08T11:19:45.437Z,37.25
2022-11-08T11:22:15.003Z,37.62
2022-11-08T11:24:52.006Z,37.28
2022-11-08T11:27:32.361Z,37.09
2022-11-08T11:30:24.382Z,37.08
2022-11-08T11:33:26.562Z,36.05
2022-11-08T11:36:20.605Z,36.15
2022-11-08T11:39:01.241Z,35.62
2022-11-08T11:41:47.880Z,35.95
2022-11-08T11:44:40.353Z,34.97
2022-11-08T11:47:17.848Z,35.62
2022-11-08T11:49:47.221Z,35.28
2022-11-08T11:52:19.913Z,34.52
2022-11-08T11:54:49.714Z,34.56
2022-11-08T11:57:31.901Z,34.27
2022-11-08T12:00:11.539Z,34.23
2022-11-08T12:13:34.719Z,34.81
2022-11-08T12:16:14.340Z,36.01
2022-11-08T12:19:02.782Z,36.30
2022-11-08T12:21:38.462Z,36.25
2022-11-08T12:24:37.021Z,35.61
2022-11-08T12:27:14.564Z,35.52
2022-11-08T12:29:53.561Z,35.01
2022-11-08T12:32:35.144Z,33.69
2022-11-08T12:35:30.755Z,32.45
2022-11-08T12:37:57.752Z,31.39
2022-11-08T12:40:30.392Z,30.22
2022-11-08T12:43:30.331Z,28.69
2022-11-08T12:46:03.924Z,27.52
2022-11-08T12:48:48.687Z,26.99
2022-11-08T12:51:42.321Z,26.77
2022-11-08T12:54:37.262Z,25.49
2022-11-08T12:57:10.520Z,24.87
2022-11-08T12:59:45.259Z,24.17
2022-11-08T13:02:34.339Z,23.05
2022-11-08T13:05:18.342Z,22.68
2022-11-08T13:07:52.645Z,22.92
2022-11-08T13:10:47.824Z,22.33
2022-11-08T13:13:22.600Z,22.85
2022-11-08T13:16:14.900Z,22.71
2022-11-08T13:18:48.282Z,22.27
2022-11-08T13:21:30.629Z,23.30
2022-11-08T13:24:14.256Z,23.36
2022-11-08T13:26:50.392Z,24.39
2022-11-08T13:29:20.268Z,25.57
2022-11-08T13:32:03.061Z,26.36
2022-11-08T13:34:38.899Z,27.86
2022-11-08T13:37:24.700Z,29.30
2022-11-08T13:40:33.540Z,31.34
2022-11-08T13:43:18.961Z,32.08
2022-11-08T13:45:46.706Z,33.35
2022-11-08T13:48:35.251Z,34.95
2022-11-08T13:51:26.940Z,35.75
2022-11-08T13:54:00.400Z,36.36
2022-11-08T13:56:46.260Z,38.42
2022-11-08T13:59:31.523Z,38.68
2022-11-08T14:01:58.787Z,39.70
2022-11-08T14:04:33.189Z,40.75
2022-11-08T14:07:28.093Z,41.50
2022-11-08T14:10:07.402Z,41.12
2022-11-08T14:12:53.259Z,42.26
2022-11-08T14:15:41.802Z,41.61
2022-11-08T14:18:17.534Z,42.17
2022-11-08T14:20:47.110Z,43.71
2022-11-08T14:23:25.330Z,42.89
2022-11-08T14:26:14.152Z,44.48
2022-11-08T14:28:45.410Z,44.60
2022-11-08T14:31:29.453Z,44.79
2022-11-08T14:33:57.510Z,44.20
2022-11-08T14:36:26.254Z,44.64
2022-11-08T14:39:13.420Z,46.02
2022-11-08T14:41:46.532Z,47.08
2022-11-08T14:44:16.439Z,47.77
2022-11-08T14:46:43.501Z,48.26
2022-11-08T14:49:11.842Z,48.26
2022-11-08T14:51:38.601Z,48.57
2022-11-08T14:54:17.425Z,48.38
2022-11-08T14:56:45.382Z,48.85
2022-11-08T14:59:13.684Z,49.37
2022-11-08T15:01:43.904Z,49.61
2022-11-08T15:04:18.058Z,49.39
2022-11-08T15:06:52.379Z,49.86
2022-11-08T15:09:25.289Z,50.32
2022-11-08T15:12:30.980Z,50.31
2022-11-08T15:15:01.394Z,50.64
2022-11-08T15:17:37.202Z,50.74
2022-11-08T15:20:15.961Z,51.01
2022-11-08T15:22:45.954Z,51.54
2022-11-08T15:25:29.790Z,51.69
2022-11-08T15:27:58.662Z,51.50
2022-11-08T15:30:31.401Z,51.93
2022-11-08T15:32:58.506Z,52.54
2022-11-08T15:35:36.774Z,52.66
2022-11-08T15:38:23.625Z,52.39
2022-11-08T15:40:53.435Z,52.59
2022-11-08T15:43:32.790Z,53.14
2022-11-08T15:46:02.823Z,52.93
2022-11-08T15:48:30.310Z,53.42
2022-11-08T15:50:58.095Z,53.63
2022-11-08T15:53:26.785Z,53.67
2022-11-08T15:56:00.609Z,54.08
2022-11-08T15:58:30.555Z,54.23
2022-11-08T16:01:00.130Z,54.37
2022-11-08T16:03:27.720Z,54.22
2022-11-08T16:05:57.003Z,54.37
2022-11-08T16:08:24.482Z,54.66
2022-11-08T16:10:59.624Z,55.08
2022-11-08T16:13:39.052Z,55.41
2022-11-08T16:16:14.988Z,55.52
2022-11-08T16:18:42.335Z,54.91
2022-11-08T16:21:13.937Z,55.62
2022-11-08T16:23:41.807Z,55.49
2022-11-08T16:26:16.352Z,56.00
2022-11-08T16:28:44.104Z,55.68
2022-11-08T16:31:16.451Z,55.83
2022-11-08T16:33:45.183Z,56.15
2022-11-08T16:36:22.033Z,55.72
2022-11-08T16:38:52.712Z,56.19
2022-11-08T16:41:20.804Z,56.19
2022-11-08T16:43:47.724Z,56.07
2022-11-08T16:46:15.176Z,56.59
2022-11-08T16:48:52.288Z,57.21
2022-11-08T16:51:22.041Z,56.91
2022-11-08T16:53:49.656Z,57.19
2022-11-08T16:56:16.991Z,57.26
2022-11-08T16:58:44.348Z,56.95
2022-11-08T17:01:19.451Z,57.16
2022-11-08T17:03:46.881Z,56.88
2022-11-08T17:06:18.237Z,57.16
2022-11-08T17:08:46.814Z,57.19
2022-11-08T17:11:22.703Z,57.61
2022-11-08T17:13:50.863Z,57.67
2022-11-08T17:16:18.943Z,57.92
2022-11-08T17:18:52.254Z,57.35
2022-11-08T17:24:07.358Z,58.07
2022-11-08T17:26:34.345Z,57.91
2022-11-08T17:29:01.331Z,58.75
2022-11-08T17:31:28.345Z,58.21
2022-11-08T17:33:56.162Z,58.02
2022-11-08T17:36:23.762Z,58.24
2022-11-08T17:38:50.781Z,58.44
2022-11-08T17:41:18.083Z,58.33
2022-11-08T17:43:45.080Z,58.27
2022-11-08T17:46:12.451Z,58.83
2022-11-08T17:48:40.086Z,58.77
2022-11-08T17:51:07.462Z,58.34
2022-11-08T17:53:35.248Z,58.53
2022-11-08T17:56:05.084Z,58.87
2022-11-08T17:58:34.347Z,58.99
2022-11-08T18:01:04.175Z,58.84
2022-11-08T18:03:31.332Z,58.95
2022-11-08T18:06:04.010Z,59.38
2022-11-08T18:08:32.763Z,58.99
2022-11-08T18:11:00.788Z,59.62
2022-11-08T18:13:29.238Z,59.00
2022-11-08T18:16:04.922Z,59.06
2022-11-08T18:18:31.931Z,59.51
2022-11-08T18:20:58.872Z,59.79
2022-11-08T18:23:25.991Z,59.64
2022-11-08T18:25:53.584Z,59.60
2022-11-08T18:28:20.662Z,59.54
2022-11-08T18:30:48.191Z,59.60
2022-11-08T18:33:17.143Z,59.92
2022-11-08T18:35:45.221Z,59.56
2022-11-08T18:38:13.973Z,59.40
2022-11-08T18:40:47.584Z,60.41
2022-11-08T18:43:15.704Z,60.47
2022-11-08T18:45:42.852Z,60.72
2022-11-08T18:48:09.783Z,60.84
2022-11-08T18:50:36.792Z,61.19
2022-11-08T18:53:07.204Z,61.61
2022-11-08T18:55:34.773Z,60.79
2022-11-08T18:58:02.256Z,60.91
2022-11-08T19:00:29.229Z,60.76
2022-11-08T19:02:56.367Z,61.33
2022-11-08T19:05:23.829Z,61.42
2022-11-08T19:07:50.741Z,61.44
2022-11-08T19:10:17.821Z,61.60
2022-11-08T19:12:44.822Z,61.71
2022-11-08T19:15:12.021Z,61.66
2022-11-08T19:17:39.099Z,61.54
2022-11-08T19:20:06.819Z,61.19
2022-11-08T19:22:33.961Z,61.39
2022-11-08T19:25:00.883Z,61.45
2022-11-08T19:27:27.832Z,61.65
2022-11-08T19:29:54.840Z,61.36
2022-11-08T19:32:23.391Z,62.09
2022-11-08T19:34:50.482Z,61.47
2022-11-08T19:37:17.524Z,61.80
2022-11-08T19:39:44.491Z,61.75
2022-11-08T19:42:11.522Z,62.03
2022-11-08T19:44:38.492Z,62.07
2022-11-08T19:47:05.612Z,62.15
2022-11-08T19:49:33.463Z,62.20
2022-11-08T19:52:00.502Z,62.50
2022-11-08T19:54:27.632Z,62.12
2022-11-08T19:57:09.787Z,61.67
2022-11-08T19:59:36.796Z,61.92
2022-11-08T20:02:03.876Z,61.55
2022-11-08T20:04:30.914Z,61.54
2022-11-08T20:06:58.812Z,61.59
2022-11-08T20:09:30.529Z,61.59
2022-11-08T20:11:58.578Z,61.77
2022-11-08T20:14:25.590Z,62.72
2022-11-08T20:16:54.060Z,62.68
2022-11-08T20:19:21.305Z,62.78
2022-11-08T20:21:48.713Z,62.28
2022-11-08T20:24:16.278Z,63.39
2022-11-08T20:26:43.895Z,63.96
2022-11-08T20:29:11.460Z,63.77
2022-11-08T20:31:39.146Z,64.13
2022-11-08T20:34:09.875Z,63.35
2022-11-08T20:36:38.113Z,62.86
2022-11-08T20:39:07.744Z,63.34
2022-11-08T20:41:37.951Z,62.95
2022-11-08T20:44:06.536Z,63.00
2022-11-08T20:46:34.694Z,62.79
2022-11-08T20:49:01.957Z,63.05
2022-11-08T20:51:30.774Z,63.10
2022-11-08T20:53:59.265Z,63.38
2022-11-08T20:56:27.487Z,63.42
2022-11-08T20:58:54.316Z,63.05
2022-11-08T21:01:24.297Z,63.32
2022-11-08T21:03:52.698Z,63.20
2022-11-08T21:06:23.214Z,63.63
2022-11-08T21:09:01.489Z,63.49
2022-11-08T21:11:34.813Z,63.33
2022-11-08T21:14:03.222Z,63.38
2022-11-08T21:16:38.232Z,63.04
2022-11-08T21:19:14.339Z,63.20
2022-11-08T21:21:41.320Z,63.26
2022-11-08T21:24:08.401Z,63.51
2022-11-08T21:26:36.569Z,63.50
2022-11-08T21:29:05.700Z,63.78
2022-11-08T21:31:34.022Z,64.10
2022-11-08T21:34:01.055Z,63.37
2022-11-08T21:36:29.405Z,63.44
2022-11-08T21:38:56.554Z,62.94
2022-11-08T21:41:23.552Z,62.81
2022-11-08T21:43:50.535Z,62.88
2022-11-08T21:46:27.223Z,63.36
2022-11-08T21:48:56.615Z,62.78
2022-11-08T21:51:24.099Z,63.39
2022-11-08T21:53:54.660Z,63.41
2022-11-08T21:56:24.480Z,63.37
2022-11-08T21:58:51.661Z,63.55
2022-11-08T22:01:18.938Z,63.37
2022-11-08T22:03:46.831Z,63.41
2022-11-08T22:06:14.167Z,63.74
2022-11-08T22:08:41.112Z,63.71
2022-11-08T22:11:08.192Z,63.78
2022-11-08T22:13:35.223Z,63.45
2022-11-08T22:16:02.253Z,63.88
2022-11-08T22:21:34.721Z,63.85
2022-11-08T22:24:01.821Z,63.59
2022-11-08T22:26:28.761Z,63.61
2022-11-08T22:28:55.773Z,63.49
2022-11-08T22:31:22.720Z,63.47
2022-11-08T22:33:49.871Z,63.78
2022-11-08T22:36:19.441Z,63.79
2022-11-08T22:38:47.160Z,63.55
2022-11-08T22:41:21.720Z,63.78
2022-11-08T22:43:49.502Z,63.55
2022-11-08T22:46:17.256Z,63.36
2022-11-08T22:48:44.485Z,63.59
2022-11-08T22:51:12.319Z,64.11
2022-11-08T22:53:40.240Z,63.50
2022-11-08T22:56:11.211Z,63.42
2022-11-08T22:58:39.313Z,63.38
2022-11-08T23:01:12.062Z,63.86
2022-11-08T23:03:39.155Z,63.50
2022-11-08T23:06:06.152Z,63.10
2022-11-08T23:08:33.354Z,62.80
2022-11-08T23:11:19.881Z,62.45
2022-11-08T23:14:05.559Z,62.77
2022-11-08T23:16:35.302Z,62.66
2022-11-08T23:19:21.680Z,62.62
2022-11-08T23:22:07.491Z,63.51
2022-11-08T23:24:34.494Z,62.89
2022-11-08T23:27:21.112Z,63.21
2022-11-08T23:30:07.723Z,63.01
2022-11-08T23:32:34.925Z,63.03
2022-11-08T23:35:02.608Z,62.95
2022-11-08T23:37:29.903Z,63.06
2022-11-08T23:40:15.733Z,64.03
2022-11-08T23:43:01.439Z,64.34
2022-11-08T23:45:28.405Z,63.79
2022-11-08T23:47:55.411Z,63.63
2022-11-08T23:50:22.541Z,63.91
2022-11-08T23:52:49.392Z,64.55
2022-11-08T23:55:16.353Z,64.02
2022-11-08T23:57:43.233Z,63.85
